sensor_id;sensor_type;location;lat;lon;timestamp;temperature;humidity
30288;DHT22;17103;48.316;11.558;2024-02-04T00:01:39;9.80;55.40
30288;DHT22;17103;48.316;11.558;2024-02-04T00:04:05;9.80;55.50
30288;DHT22;17103;48.316;11.558;2024-02-04T00:06:32;9.80;55.50
30288;DHT22;17103;48.316;11.558;2024-02-04T00:08:57;9.80;55.90
30288;DHT22;17103;48.316;11.558;2024-02-04T00:11:23;9.80;55.70
30288;DHT22;17103;48.316;11.558;2024-02-04T00:13:49;9.80;55.80
30288;DHT22;17103;48.316;11.558;2024-02-04T00:16:14;9.80;56.00
30288;DHT22;17103;48.316;11.558;2024-02-04T00:18:40;9.80;56.40
30288;DHT22;17103;48.316;11.558;2024-02-04T00:21:06;9.80;56.40
30288;DHT22;17103;48.316;11.558;2024-02-04T00:23:31;9.80;56.40
30288;DHT22;17103;48.316;11.558;2024-02-04T00:25:57;9.80;56.40
30288;DHT22;17103;48.316;11.558;2024-02-04T00:28:23;9.80;56.50
30288;DHT22;17103;48.316;11.558;2024-02-04T00:30:48;9.80;56.40
30288;DHT22;17103;48.316;11.558;2024-02-04T00:33:15;9.80;56.60
30288;DHT22;17103;48.316;11.558;2024-02-04T00:35:42;10.20;55.80
30288;DHT22;17103;48.316;11.558;2024-02-04T00:38:08;9.90;56.30
30288;DHT22;17103;48.316;11.558;2024-02-04T00:40:37;9.90;56.30
30288;DHT22;17103;48.316;11.558;2024-02-04T00:43:02;9.80;56.40
30288;DHT22;17103;48.316;11.558;2024-02-04T00:45:28;9.80;56.30
30288;DHT22;17103;48.316;11.558;2024-02-04T00:47:54;9.80;56.40
30288;DHT22;17103;48.316;11.558;2024-02-04T00:50:19;9.90;56.10
30288;DHT22;17103;48.316;11.558;2024-02-04T00:52:46;9.90;56.20
30288;DHT22;17103;48.316;11.558;2024-02-04T00:55:12;9.90;56.10
30288;DHT22;17103;48.316;11.558;2024-02-04T00:57:37;9.90;55.80
30288;DHT22;17103;48.316;11.558;2024-02-04T01:00:03;10.40;55.10
30288;DHT22;17103;48.316;11.558;2024-02-04T01:02:30;10.00;54.90
30288;DHT22;17103;48.316;11.558;2024-02-04T01:04:55;9.90;55.60
30288;DHT22;17103;48.316;11.558;2024-02-04T01:07:21;10.00;54.40
30288;DHT22;17103;48.316;11.558;2024-02-04T01:09:47;10.00;54.40
30288;DHT22;17103;48.316;11.558;2024-02-04T01:12:13;10.00;54.60
30288;DHT22;17103;48.316;11.558;2024-02-04T01:14:38;10.00;54.40
30288;DHT22;17103;48.316;11.558;2024-02-04T01:17:04;9.90;55.20
30288;DHT22;17103;48.316;11.558;2024-02-04T01:19:29;10.00;54.40
30288;DHT22;17103;48.316;11.558;2024-02-04T01:21:55;10.00;54.50
30288;DHT22;17103;48.316;11.558;2024-02-04T01:24:21;10.00;54.50
30288;DHT22;17103;48.316;11.558;2024-02-04T01:26:46;10.00;54.40
30288;DHT22;17103;48.316;11.558;2024-02-04T01:29:12;9.90;55.00
30288;DHT22;17103;48.316;11.558;2024-02-04T01:31:38;10.00;54.10
30288;DHT22;17103;48.316;11.558;2024-02-04T01:34:03;10.00;53.90
30288;DHT22;17103;48.316;11.558;2024-02-04T01:36:29;10.00;54.00
30288;DHT22;17103;48.316;11.558;2024-02-04T01:38:55;10.00;54.00
30288;DHT22;17103;48.316;11.558;2024-02-04T01:41:21;10.00;53.90
30288;DHT22;17103;48.316;11.558;2024-02-04T01:43:47;10.00;53.80
30288;DHT22;17103;48.316;11.558;2024-02-04T01:46:13;10.00;53.80
30288;DHT22;17103;48.316;11.558;2024-02-04T01:48:39;10.00;54.30
30288;DHT22;17103;48.316;11.558;2024-02-04T01:51:05;10.00;53.70
30288;DHT22;17103;48.316;11.558;2024-02-04T01:53:32;10.00;53.60
30288;DHT22;17103;48.316;11.558;2024-02-04T01:55:59;10.00;53.50
30288;DHT22;17103;48.316;11.558;2024-02-04T01:58:25;10.00;53.60
30288;DHT22;17103;48.316;11.558;2024-02-04T02:00:51;9.90;54.40
30288;DHT22;17103;48.316;11.558;2024-02-04T02:03:18;9.90;54.40
30288;DHT22;17103;48.316;11.558;2024-02-04T02:05:45;9.90;54.50
30288;DHT22;17103;48.316;11.558;2024-02-04T02:08:12;9.90;54.40
30288;DHT22;17103;48.316;11.558;2024-02-04T02:10:38;9.90;54.50
30288;DHT22;17103;48.316;11.558;2024-02-04T02:13:14;9.90;54.40
30288;DHT22;17103;48.316;11.558;2024-02-04T02:15:48;9.90;54.40
30288;DHT22;17103;48.316;11.558;2024-02-04T02:18:23;10.00;53.50
30288;DHT22;17103;48.316;11.558;2024-02-04T02:26:18;9.90;54.00
30288;DHT22;17103;48.316;11.558;2024-02-04T02:28:44;9.90;53.80
30288;DHT22;17103;48.316;11.558;2024-02-04T02:31:10;9.90;53.80
30288;DHT22;17103;48.316;11.558;2024-02-04T02:33:36;9.90;53.80
30288;DHT22;17103;48.316;11.558;2024-02-04T02:36:06;9.90;53.80
30288;DHT22;17103;48.316;11.558;2024-02-04T02:38:52;9.80;53.70
30288;DHT22;17103;48.316;11.558;2024-02-04T02:41:21;9.90;53.80
30288;DHT22;17103;48.316;11.558;2024-02-04T02:43:47;9.90;53.60
30288;DHT22;17103;48.316;11.558;2024-02-04T02:46:13;9.90;53.50
30288;DHT22;17103;48.316;11.558;2024-02-04T02:48:39;9.90;53.40
30288;DHT22;17103;48.316;11.558;2024-02-04T02:51:05;9.90;53.40
30288;DHT22;17103;48.316;11.558;2024-02-04T02:53:31;9.90;53.40
30288;DHT22;17103;48.316;11.558;2024-02-04T02:55:56;9.80;53.50
30288;DHT22;17103;48.316;11.558;2024-02-04T02:58:22;9.80;53.40
30288;DHT22;17103;48.316;11.558;2024-02-04T03:00:48;9.90;53.40
30288;DHT22;17103;48.316;11.558;2024-02-04T03:03:13;9.80;53.40
30288;DHT22;17103;48.316;11.558;2024-02-04T03:05:39;9.80;53.40
30288;DHT22;17103;48.316;11.558;2024-02-04T03:08:05;9.80;53.40
30288;DHT22;17103;48.316;11.558;2024-02-04T03:10:31;9.80;53.40
30288;DHT22;17103;48.316;11.558;2024-02-04T03:12:56;9.80;53.50
30288;DHT22;17103;48.316;11.558;2024-02-04T03:15:22;9.70;53.40
30288;DHT22;17103;48.316;11.558;2024-02-04T03:17:48;9.70;53.50
30288;DHT22;17103;48.316;11.558;2024-02-04T03:20:13;9.70;53.50
30288;DHT22;17103;48.316;11.558;2024-02-04T03:22:39;9.70;53.60
30288;DHT22;17103;48.316;11.558;2024-02-04T03:25:05;9.70;53.60
30288;DHT22;17103;48.316;11.558;2024-02-04T03:27:31;9.70;53.70
30288;DHT22;17103;48.316;11.558;2024-02-04T03:29:56;9.70;54.00
30288;DHT22;17103;48.316;11.558;2024-02-04T03:32:22;9.80;53.60
30288;DHT22;17103;48.316;11.558;2024-02-04T03:34:47;9.80;53.50
30288;DHT22;17103;48.316;11.558;2024-02-04T03:37:13;9.80;53.50
30288;DHT22;17103;48.316;11.558;2024-02-04T03:39:39;9.80;53.50
30288;DHT22;17103;48.316;11.558;2024-02-04T03:42:04;9.70;53.60
30288;DHT22;17103;48.316;11.558;2024-02-04T03:44:30;9.70;53.80
30288;DHT22;17103;48.316;11.558;2024-02-04T03:46:56;9.70;53.90
30288;DHT22;17103;48.316;11.558;2024-02-04T03:49:21;9.60;54.00
30288;DHT22;17103;48.316;11.558;2024-02-04T03:51:47;9.70;54.00
30288;DHT22;17103;48.316;11.558;2024-02-04T03:54:13;9.90;54.10
30288;DHT22;17103;48.316;11.558;2024-02-04T03:56:38;9.70;54.10
30288;DHT22;17103;48.316;11.558;2024-02-04T03:59:04;9.70;54.40
30288;DHT22;17103;48.316;11.558;2024-02-04T04:01:32;9.70;54.50
30288;DHT22;17103;48.316;11.558;2024-02-04T04:03:57;9.60;54.50
30288;DHT22;17103;48.316;11.558;2024-02-04T04:06:23;9.70;54.50
30288;DHT22;17103;48.316;11.558;2024-02-04T04:08:48;9.60;55.20
30288;DHT22;17103;48.316;11.558;2024-02-04T04:11:14;9.70;54.40
30288;DHT22;17103;48.316;11.558;2024-02-04T04:13:40;9.70;54.40
30288;DHT22;17103;48.316;11.558;2024-02-04T04:16:06;9.80;54.50
30288;DHT22;17103;48.316;11.558;2024-02-04T04:18:32;9.70;54.50
30288;DHT22;17103;48.316;11.558;2024-02-04T04:20:57;9.70;54.70
30288;DHT22;17103;48.316;11.558;2024-02-04T04:23:23;9.70;54.70
30288;DHT22;17103;48.316;11.558;2024-02-04T04:25:49;9.70;54.70
30288;DHT22;17103;48.316;11.558;2024-02-04T04:28:14;9.70;55.00
30288;DHT22;17103;48.316;11.558;2024-02-04T04:30:40;9.70;55.10
30288;DHT22;17103;48.316;11.558;2024-02-04T04:33:06;9.70;55.40
30288;DHT22;17103;48.316;11.558;2024-02-04T04:35:32;9.70;55.40
30288;DHT22;17103;48.316;11.558;2024-02-04T04:37:57;9.70;55.60
30288;DHT22;17103;48.316;11.558;2024-02-04T04:40:23;9.70;55.50
30288;DHT22;17103;48.316;11.558;2024-02-04T04:42:49;9.70;55.60
30288;DHT22;17103;48.316;11.558;2024-02-04T04:45:15;9.70;55.50
30288;DHT22;17103;48.316;11.558;2024-02-04T04:47:41;9.70;55.80
30288;DHT22;17103;48.316;11.558;2024-02-04T04:50:07;9.70;55.70
30288;DHT22;17103;48.316;11.558;2024-02-04T04:52:32;9.70;55.90
30288;DHT22;17103;48.316;11.558;2024-02-04T04:54:58;9.60;55.90
30288;DHT22;17103;48.316;11.558;2024-02-04T04:57:24;9.60;55.90
30288;DHT22;17103;48.316;11.558;2024-02-04T04:59:50;9.60;55.90
30288;DHT22;17103;48.316;11.558;2024-02-04T05:02:15;9.60;56.00
30288;DHT22;17103;48.316;11.558;2024-02-04T05:04:44;9.60;56.00
30288;DHT22;17103;48.316;11.558;2024-02-04T05:07:11;9.60;55.80
30288;DHT22;17103;48.316;11.558;2024-02-04T05:09:37;9.60;55.60
30288;DHT22;17103;48.316;11.558;2024-02-04T05:12:03;9.60;55.80
30288;DHT22;17103;48.316;11.558;2024-02-04T05:14:29;9.60;55.50
30288;DHT22;17103;48.316;11.558;2024-02-04T05:16:55;9.60;55.70
30288;DHT22;17103;48.316;11.558;2024-02-04T05:19:21;9.60;55.80
30288;DHT22;17103;48.316;11.558;2024-02-04T05:21:47;9.60;55.90
30288;DHT22;17103;48.316;11.558;2024-02-04T05:24:12;9.60;56.20
30288;DHT22;17103;48.316;11.558;2024-02-04T05:26:38;9.60;56.20
30288;DHT22;17103;48.316;11.558;2024-02-04T05:29:04;9.60;56.70
30288;DHT22;17103;48.316;11.558;2024-02-04T05:31:29;9.60;56.80
30288;DHT22;17103;48.316;11.558;2024-02-04T05:33:56;10.00;56.20
30288;DHT22;17103;48.316;11.558;2024-02-04T05:36:22;9.60;57.20
30288;DHT22;17103;48.316;11.558;2024-02-04T05:38:47;9.60;57.10
30288;DHT22;17103;48.316;11.558;2024-02-04T05:41:13;9.60;56.90
30288;DHT22;17103;48.316;11.558;2024-02-04T05:43:39;9.60;56.70
30288;DHT22;17103;48.316;11.558;2024-02-04T05:46:05;9.60;57.10
30288;DHT22;17103;48.316;11.558;2024-02-04T05:48:30;9.60;57.10
30288;DHT22;17103;48.316;11.558;2024-02-04T05:50:56;9.60;57.00
30288;DHT22;17103;48.316;11.558;2024-02-04T05:53:22;9.50;56.70
30288;DHT22;17103;48.316;11.558;2024-02-04T05:55:47;9.60;57.10
30288;DHT22;17103;48.316;11.558;2024-02-04T05:58:13;9.60;57.10
30288;DHT22;17103;48.316;11.558;2024-02-04T06:00:40;9.60;57.10
30288;DHT22;17103;48.316;11.558;2024-02-04T06:03:06;9.50;57.40
30288;DHT22;17103;48.316;11.558;2024-02-04T06:05:31;9.50;57.40
30288;DHT22;17103;48.316;11.558;2024-02-04T06:07:57;9.40;57.40
30288;DHT22;17103;48.316;11.558;2024-02-04T06:10:23;9.40;57.70
30288;DHT22;17103;48.316;11.558;2024-02-04T06:12:49;9.40;57.70
30288;DHT22;17103;48.316;11.558;2024-02-04T06:15:15;9.40;57.90
30288;DHT22;17103;48.316;11.558;2024-02-04T06:17:41;9.40;57.70
30288;DHT22;17103;48.316;11.558;2024-02-04T06:20:07;9.40;57.80
30288;DHT22;17103;48.316;11.558;2024-02-04T06:22:36;9.40;58.00
30288;DHT22;17103;48.316;11.558;2024-02-04T06:25:03;9.40;58.20
30288;DHT22;17103;48.316;11.558;2024-02-04T06:27:30;9.40;58.20
30288;DHT22;17103;48.316;11.558;2024-02-04T06:29:56;9.40;58.30
30288;DHT22;17103;48.316;11.558;2024-02-04T06:32:21;9.80;58.70
30288;DHT22;17103;48.316;11.558;2024-02-04T06:34:47;9.30;58.30
30288;DHT22;17103;48.316;11.558;2024-02-04T06:37:13;9.30;58.40
30288;DHT22;17103;48.316;11.558;2024-02-04T06:39:38;9.30;59.00
30288;DHT22;17103;48.316;11.558;2024-02-04T06:42:04;9.30;58.60
30288;DHT22;17103;48.316;11.558;2024-02-04T06:44:30;9.20;58.60
30288;DHT22;17103;48.316;11.558;2024-02-04T06:46:56;9.30;58.80
30288;DHT22;17103;48.316;11.558;2024-02-04T06:49:21;9.30;58.80
30288;DHT22;17103;48.316;11.558;2024-02-04T06:51:47;9.40;59.00
30288;DHT22;17103;48.316;11.558;2024-02-04T06:54:14;9.30;58.80
30288;DHT22;17103;48.316;11.558;2024-02-04T06:56:40;9.30;58.50
30288;DHT22;17103;48.316;11.558;2024-02-04T06:59:05;9.30;58.60
30288;DHT22;17103;48.316;11.558;2024-02-04T07:01:32;9.40;58.50
30288;DHT22;17103;48.316;11.558;2024-02-04T07:03:58;9.50;58.50
30288;DHT22;17103;48.316;11.558;2024-02-04T07:06:23;9.40;58.30
30288;DHT22;17103;48.316;11.558;2024-02-04T07:08:49;9.40;58.20
30288;DHT22;17103;48.316;11.558;2024-02-04T07:11:15;9.40;58.40
30288;DHT22;17103;48.316;11.558;2024-02-04T07:13:41;9.40;58.80
30288;DHT22;17103;48.316;11.558;2024-02-04T07:16:07;9.40;58.40
30288;DHT22;17103;48.316;11.558;2024-02-04T07:18:33;9.40;58.40
30288;DHT22;17103;48.316;11.558;2024-02-04T07:20:58;9.40;58.30
30288;DHT22;17103;48.316;11.558;2024-02-04T07:23:24;9.40;58.40
30288;DHT22;17103;48.316;11.558;2024-02-04T07:25:50;9.40;58.20
30288;DHT22;17103;48.316;11.558;2024-02-04T07:28:15;9.40;58.30
30288;DHT22;17103;48.316;11.558;2024-02-04T07:30:41;9.40;58.40
30288;DHT22;17103;48.316;11.558;2024-02-04T07:33:07;9.40;58.30
30288;DHT22;17103;48.316;11.558;2024-02-04T07:35:32;9.40;58.30
30288;DHT22;17103;48.316;11.558;2024-02-04T07:37:58;9.40;58.50
30288;DHT22;17103;48.316;11.558;2024-02-04T07:40:24;9.40;58.50
30288;DHT22;17103;48.316;11.558;2024-02-04T07:42:50;9.40;58.50
30288;DHT22;17103;48.316;11.558;2024-02-04T07:45:16;9.40;58.50
30288;DHT22;17103;48.316;11.558;2024-02-04T07:47:41;9.50;58.60
30288;DHT22;17103;48.316;11.558;2024-02-04T07:50:08;9.40;58.50
30288;DHT22;17103;48.316;11.558;2024-02-04T07:52:33;9.40;58.30
30288;DHT22;17103;48.316;11.558;2024-02-04T07:54:59;9.40;58.40
30288;DHT22;17103;48.316;11.558;2024-02-04T07:57:25;9.40;58.50
30288;DHT22;17103;48.316;11.558;2024-02-04T07:59:50;9.40;58.40
30288;DHT22;17103;48.316;11.558;2024-02-04T08:02:18;9.40;58.40
30288;DHT22;17103;48.316;11.558;2024-02-04T08:04:44;9.40;58.40
30288;DHT22;17103;48.316;11.558;2024-02-04T08:07:11;9.40;58.30
30288;DHT22;17103;48.316;11.558;2024-02-04T08:09:37;10.30;58.10
30288;DHT22;17103;48.316;11.558;2024-02-04T08:12:02;9.40;58.20
30288;DHT22;17103;48.316;11.558;2024-02-04T08:14:29;9.40;58.10
30288;DHT22;17103;48.316;11.558;2024-02-04T08:16:54;9.40;58.10
30288;DHT22;17103;48.316;11.558;2024-02-04T08:19:20;9.30;58.10
30288;DHT22;17103;48.316;11.558;2024-02-04T08:21:47;9.30;58.20
30288;DHT22;17103;48.316;11.558;2024-02-04T08:24:13;9.80;58.50
30288;DHT22;17103;48.316;11.558;2024-02-04T08:26:39;9.30;58.10
30288;DHT22;17103;48.316;11.558;2024-02-04T08:29:04;9.30;58.00
30288;DHT22;17103;48.316;11.558;2024-02-04T08:31:32;9.40;58.20
30288;DHT22;17103;48.316;11.558;2024-02-04T08:33:58;9.30;58.10
30288;DHT22;17103;48.316;11.558;2024-02-04T08:36:23;9.30;58.20
30288;DHT22;17103;48.316;11.558;2024-02-04T08:38:49;9.20;58.10
30288;DHT22;17103;48.316;11.558;2024-02-04T08:41:15;9.20;58.20
30288;DHT22;17103;48.316;11.558;2024-02-04T08:43:41;9.30;58.30
30288;DHT22;17103;48.316;11.558;2024-02-04T08:46:06;9.20;58.20
30288;DHT22;17103;48.316;11.558;2024-02-04T08:48:32;9.30;58.30
30288;DHT22;17103;48.316;11.558;2024-02-04T08:50:58;9.30;58.10
30288;DHT22;17103;48.316;11.558;2024-02-04T08:53:24;9.30;58.30
30288;DHT22;17103;48.316;11.558;2024-02-04T08:55:50;9.30;58.50
30288;DHT22;17103;48.316;11.558;2024-02-04T08:58:15;9.20;58.60
30288;DHT22;17103;48.316;11.558;2024-02-04T09:00:41;9.30;58.80
30288;DHT22;17103;48.316;11.558;2024-02-04T09:03:07;9.30;58.80
30288;DHT22;17103;48.316;11.558;2024-02-04T09:05:33;9.40;58.90
30288;DHT22;17103;48.316;11.558;2024-02-04T09:07:58;9.40;58.80
30288;DHT22;17103;48.316;11.558;2024-02-04T09:10:24;9.50;58.80
30288;DHT22;17103;48.316;11.558;2024-02-04T09:12:50;9.50;58.70
30288;DHT22;17103;48.316;11.558;2024-02-04T09:15:15;9.60;58.50
30288;DHT22;17103;48.316;11.558;2024-02-04T09:17:41;9.60;58.30
30288;DHT22;17103;48.316;11.558;2024-02-04T09:20:07;9.60;58.40
30288;DHT22;17103;48.316;11.558;2024-02-04T09:22:33;9.70;58.30
30288;DHT22;17103;48.316;11.558;2024-02-04T09:24:59;9.70;58.60
30288;DHT22;17103;48.316;11.558;2024-02-04T09:27:25;9.70;58.30
30288;DHT22;17103;48.316;11.558;2024-02-04T09:29:51;9.70;58.10
30288;DHT22;17103;48.316;11.558;2024-02-04T09:32:17;9.70;58.10
30288;DHT22;17103;48.316;11.558;2024-02-04T09:34:43;9.80;58.00
30288;DHT22;17103;48.316;11.558;2024-02-04T09:37:09;9.80;58.00
30288;DHT22;17103;48.316;11.558;2024-02-04T09:39:34;10.00;57.00
30288;DHT22;17103;48.316;11.558;2024-02-04T09:42:01;10.60;57.20
30288;DHT22;17103;48.316;11.558;2024-02-04T09:44:26;9.80;57.50
30288;DHT22;17103;48.316;11.558;2024-02-04T09:46:53;9.80;57.60
30288;DHT22;17103;48.316;11.558;2024-02-04T09:49:20;9.90;57.90
30288;DHT22;17103;48.316;11.558;2024-02-04T09:51:46;9.90;57.80
30288;DHT22;17103;48.316;11.558;2024-02-04T09:54:14;9.80;57.60
30288;DHT22;17103;48.316;11.558;2024-02-04T09:56:42;9.80;57.70
30288;DHT22;17103;48.316;11.558;2024-02-04T09:59:08;9.80;58.00
30288;DHT22;17103;48.316;11.558;2024-02-04T10:01:35;10.40;57.80
30288;DHT22;17103;48.316;11.558;2024-02-04T10:04:01;9.90;57.60
30288;DHT22;17103;48.316;11.558;2024-02-04T10:06:27;9.80;57.60
30288;DHT22;17103;48.316;11.558;2024-02-04T10:08:53;9.90;57.70
30288;DHT22;17103;48.316;11.558;2024-02-04T10:11:18;9.90;57.50
30288;DHT22;17103;48.316;11.558;2024-02-04T10:13:48;9.90;57.60
30288;DHT22;17103;48.316;11.558;2024-02-04T10:16:15;9.90;57.40
30288;DHT22;17103;48.316;11.558;2024-02-04T10:18:45;9.90;57.40
30288;DHT22;17103;48.316;11.558;2024-02-04T10:21:18;10.00;56.40
30288;DHT22;17103;48.316;11.558;2024-02-04T10:23:45;10.00;56.10
30288;DHT22;17103;48.316;11.558;2024-02-04T10:26:11;10.00;55.90
30288;DHT22;17103;48.316;11.558;2024-02-04T10:28:37;10.00;56.40
30288;DHT22;17103;48.316;11.558;2024-02-04T10:31:03;10.00;56.20
30288;DHT22;17103;48.316;11.558;2024-02-04T10:33:32;10.00;56.00
30288;DHT22;17103;48.316;11.558;2024-02-04T10:35:58;10.00;56.10
30288;DHT22;17103;48.316;11.558;2024-02-04T10:38:24;10.00;56.10
30288;DHT22;17103;48.316;11.558;2024-02-04T10:40:54;9.90;56.80
30288;DHT22;17103;48.316;11.558;2024-02-04T10:43:33;9.40;56.70
30288;DHT22;17103;48.316;11.558;2024-02-04T10:46:22;10.00;56.10
30288;DHT22;17103;48.316;11.558;2024-02-04T10:49:00;10.00;56.10
30288;DHT22;17103;48.316;11.558;2024-02-04T10:51:26;10.00;56.20
30288;DHT22;17103;48.316;11.558;2024-02-04T10:53:54;10.00;56.10
30288;DHT22;17103;48.316;11.558;2024-02-04T10:56:25;9.60;56.60
30288;DHT22;17103;48.316;11.558;2024-02-04T10:58:52;10.10;55.80
30288;DHT22;17103;48.316;11.558;2024-02-04T11:01:19;10.20;55.60
30288;DHT22;17103;48.316;11.558;2024-02-04T11:03:45;10.20;55.90
30288;DHT22;17103;48.316;11.558;2024-02-04T11:06:12;10.20;56.40
30288;DHT22;17103;48.316;11.558;2024-02-04T11:08:39;10.60;56.20
30288;DHT22;17103;48.316;11.558;2024-02-04T11:11:05;10.30;55.80
30288;DHT22;17103;48.316;11.558;2024-02-04T11:13:31;10.30;56.10
30288;DHT22;17103;48.316;11.558;2024-02-04T11:15:58;10.30;55.90
30288;DHT22;17103;48.316;11.558;2024-02-04T11:23:32;10.50;55.60
30288;DHT22;17103;48.316;11.558;2024-02-04T11:26:01;10.60;55.60
30288;DHT22;17103;48.316;11.558;2024-02-04T11:28:27;10.70;55.30
30288;DHT22;17103;48.316;11.558;2024-02-04T11:30:53;10.70;54.70
30288;DHT22;17103;48.316;11.558;2024-02-04T11:33:21;10.70;54.40
30288;DHT22;17103;48.316;11.558;2024-02-04T11:35:58;10.80;54.50
30288;DHT22;17103;48.316;11.558;2024-02-04T11:38:30;11.10;54.90
30288;DHT22;17103;48.316;11.558;2024-02-04T11:40:56;10.80;54.40
30288;DHT22;17103;48.316;11.558;2024-02-04T11:43:23;11.70;55.10
30288;DHT22;17103;48.316;11.558;2024-02-04T11:45:51;10.90;54.50
30288;DHT22;17103;48.316;11.558;2024-02-04T11:48:18;10.90;54.50
30288;DHT22;17103;48.316;11.558;2024-02-04T11:50:52;10.90;54.40
30288;DHT22;17103;48.316;11.558;2024-02-04T11:53:18;11.00;54.40
30288;DHT22;17103;48.316;11.558;2024-02-04T11:55:45;10.90;54.50
30288;DHT22;17103;48.316;11.558;2024-02-04T11:58:11;11.80;55.40
30288;DHT22;17103;48.316;11.558;2024-02-04T12:00:38;10.90;54.60
30288;DHT22;17103;48.316;11.558;2024-02-04T12:03:08;10.90;54.80
30288;DHT22;17103;48.316;11.558;2024-02-04T12:05:37;11.00;54.70
30288;DHT22;17103;48.316;11.558;2024-02-04T12:08:06;11.00;54.60
30288;DHT22;17103;48.316;11.558;2024-02-04T12:10:33;11.00;54.70
30288;DHT22;17103;48.316;11.558;2024-02-04T12:13:02;11.10;54.80
30288;DHT22;17103;48.316;11.558;2024-02-04T12:15:29;11.10;54.40
30288;DHT22;17103;48.316;11.558;2024-02-04T12:17:55;11.10;54.40
30288;DHT22;17103;48.316;11.558;2024-02-04T12:20:21;11.10;54.20
30288;DHT22;17103;48.316;11.558;2024-02-04T12:22:47;11.10;54.10
30288;DHT22;17103;48.316;11.558;2024-02-04T12:25:14;11.10;54.20
30288;DHT22;17103;48.316;11.558;2024-02-04T12:27:40;11.70;54.60
30288;DHT22;17103;48.316;11.558;2024-02-04T12:30:06;11.20;53.70
30288;DHT22;17103;48.316;11.558;2024-02-04T12:32:33;11.30;54.10
30288;DHT22;17103;48.316;11.558;2024-02-04T12:34:58;11.30;54.10
30288;DHT22;17103;48.316;11.558;2024-02-04T12:37:24;11.30;53.70
30288;DHT22;17103;48.316;11.558;2024-02-04T12:39:52;11.30;53.90
30288;DHT22;17103;48.316;11.558;2024-02-04T12:42:17;11.40;54.00
30288;DHT22;17103;48.316;11.558;2024-02-04T12:44:50;11.40;53.70
30288;DHT22;17103;48.316;11.558;2024-02-04T12:47:19;11.40;53.50
30288;DHT22;17103;48.316;11.558;2024-02-04T12:49:45;11.40;53.50
30288;DHT22;17103;48.316;11.558;2024-02-04T12:52:11;11.70;53.90
30288;DHT22;17103;48.316;11.558;2024-02-04T12:54:44;12.20;54.00
30288;DHT22;17103;48.316;11.558;2024-02-04T12:57:10;11.60;53.30
30288;DHT22;17103;48.316;11.558;2024-02-04T12:59:46;11.90;53.40
30288;DHT22;17103;48.316;11.558;2024-02-04T13:02:14;11.70;52.60
30288;DHT22;17103;48.316;11.558;2024-02-04T13:04:41;11.70;52.60
30288;DHT22;17103;48.316;11.558;2024-02-04T13:07:14;11.70;52.70
30288;DHT22;17103;48.316;11.558;2024-02-04T13:09:42;11.80;52.40
30288;DHT22;17103;48.316;11.558;2024-02-04T13:12:10;11.80;52.50
30288;DHT22;17103;48.316;11.558;2024-02-04T13:14:37;11.90;52.40
30288;DHT22;17103;48.316;11.558;2024-02-04T13:17:03;11.90;52.10
30288;DHT22;17103;48.316;11.558;2024-02-04T13:19:39;11.90;52.20
30288;DHT22;17103;48.316;11.558;2024-02-04T13:22:06;11.80;52.00
30288;DHT22;17103;48.316;11.558;2024-02-04T13:24:32;11.90;52.10
30288;DHT22;17103;48.316;11.558;2024-02-04T13:26:58;11.90;51.90
30288;DHT22;17103;48.316;11.558;2024-02-04T13:29:29;11.90;51.90
30288;DHT22;17103;48.316;11.558;2024-02-04T13:31:55;11.90;52.10
30288;DHT22;17103;48.316;11.558;2024-02-04T13:34:21;11.90;52.10
30288;DHT22;17103;48.316;11.558;2024-02-04T13:36:47;11.80;51.90
30288;DHT22;17103;48.316;11.558;2024-02-04T13:39:13;11.80;52.00
30288;DHT22;17103;48.316;11.558;2024-02-04T13:41:40;11.80;52.10
30288;DHT22;17103;48.316;11.558;2024-02-04T13:44:05;11.90;52.30
30288;DHT22;17103;48.316;11.558;2024-02-04T13:46:32;11.90;52.00
30288;DHT22;17103;48.316;11.558;2024-02-04T13:48:57;11.90;52.20
30288;DHT22;17103;48.316;11.558;2024-02-04T13:51:23;11.90;52.00
30288;DHT22;17103;48.316;11.558;2024-02-04T13:53:52;11.90;51.90
30288;DHT22;17103;48.316;11.558;2024-02-04T13:56:37;11.90;51.90
30288;DHT22;17103;48.316;11.558;2024-02-04T13:59:03;12.10;51.80
30288;DHT22;17103;48.316;11.558;2024-02-04T14:01:28;12.00;51.70
30288;DHT22;17103;48.316;11.558;2024-02-04T14:03:54;12.10;51.70
30288;DHT22;17103;48.316;11.558;2024-02-04T14:06:19;12.10;51.50
30288;DHT22;17103;48.316;11.558;2024-02-04T14:08:45;12.10;51.40
30288;DHT22;17103;48.316;11.558;2024-02-04T14:11:11;12.10;51.60
30288;DHT22;17103;48.316;11.558;2024-02-04T14:13:37;12.20;51.50
30288;DHT22;17103;48.316;11.558;2024-02-04T14:16:03;12.20;51.50
30288;DHT22;17103;48.316;11.558;2024-02-04T14:18:29;12.20;51.50
30288;DHT22;17103;48.316;11.558;2024-02-04T14:20:54;12.30;51.60
30288;DHT22;17103;48.316;11.558;2024-02-04T14:23:20;12.30;51.50
30288;DHT22;17103;48.316;11.558;2024-02-04T14:25:47;12.40;51.30
30288;DHT22;17103;48.316;11.558;2024-02-04T14:28:13;12.40;51.10
30288;DHT22;17103;48.316;11.558;2024-02-04T14:30:38;12.40;51.10
30288;DHT22;17103;48.316;11.558;2024-02-04T14:33:04;12.50;51.20
30288;DHT22;17103;48.316;11.558;2024-02-04T14:35:30;12.40;51.00
30288;DHT22;17103;48.316;11.558;2024-02-04T14:37:55;12.40;50.70
30288;DHT22;17103;48.316;11.558;2024-02-04T14:40:21;12.50;51.00
30288;DHT22;17103;48.316;11.558;2024-02-04T14:42:47;12.50;50.90
30288;DHT22;17103;48.316;11.558;2024-02-04T14:45:13;12.50;50.70
30288;DHT22;17103;48.316;11.558;2024-02-04T14:47:38;12.50;50.80
30288;DHT22;17103;48.316;11.558;2024-02-04T14:50:04;12.50;50.60
30288;DHT22;17103;48.316;11.558;2024-02-04T14:52:30;12.50;50.70
30288;DHT22;17103;48.316;11.558;2024-02-04T14:54:56;12.60;51.00
30288;DHT22;17103;48.316;11.558;2024-02-04T14:57:22;12.70;51.00
30288;DHT22;17103;48.316;11.558;2024-02-04T14:59:48;12.60;51.00
30288;DHT22;17103;48.316;11.558;2024-02-04T15:02:14;12.60;50.80
30288;DHT22;17103;48.316;11.558;2024-02-04T15:04:40;12.60;50.70
30288;DHT22;17103;48.316;11.558;2024-02-04T15:07:05;12.60;50.60
30288;DHT22;17103;48.316;11.558;2024-02-04T15:09:34;12.60;50.70
30288;DHT22;17103;48.316;11.558;2024-02-04T15:12:00;13.40;51.50
30288;DHT22;17103;48.316;11.558;2024-02-04T15:14:27;12.60;50.80
30288;DHT22;17103;48.316;11.558;2024-02-04T15:16:53;12.60;50.90
30288;DHT22;17103;48.316;11.558;2024-02-04T15:19:24;12.60;50.90
30288;DHT22;17103;48.316;11.558;2024-02-04T15:21:52;12.70;50.80
30288;DHT22;17103;48.316;11.558;2024-02-04T15:24:18;12.60;50.80
30288;DHT22;17103;48.316;11.558;2024-02-04T15:26:48;12.70;50.80
30288;DHT22;17103;48.316;11.558;2024-02-04T15:29:21;12.60;50.80
30288;DHT22;17103;48.316;11.558;2024-02-04T15:31:47;12.60;50.80